createdAt,value
2019-05-21T00:01:00.645Z,9.60
2019-05-21T00:03:30.190Z,11.48
2019-05-21T00:05:59.646Z,9.25
2019-05-21T00:08:29.104Z,6.78
2019-05-21T00:10:58.566Z,8.88
2019-05-21T00:13:28.997Z,7.70
2019-05-21T00:15:58.539Z,8.03
2019-05-21T00:18:27.998Z,9.83
2019-05-21T00:20:58.573Z,10.90
2019-05-21T00:23:29.614Z,10.00
2019-05-21T00:25:59.142Z,9.68
2019-05-21T00:28:40.255Z,9.38
2019-05-21T00:31:46.338Z,9.80
2019-05-21T00:34:52.351Z,9.98
2019-05-21T00:37:58.130Z,11.05
2019-05-21T00:41:04.816Z,9.90
2019-05-21T00:43:40.017Z,11.18
2019-05-21T00:46:09.475Z,9.38
2019-05-21T00:48:38.924Z,8.75
2019-05-21T00:51:08.382Z,8.03
2019-05-21T00:53:37.886Z,7.25
2019-05-21T00:56:07.300Z,7.45
2019-05-21T00:58:37.743Z,6.92
2019-05-21T01:01:07.190Z,8.98
2019-05-21T01:03:36.646Z,8.50
2019-05-21T01:06:06.185Z,6.97
2019-05-21T01:08:35.635Z,7.80
2019-05-21T01:11:05.187Z,8.73
2019-05-21T01:13:34.630Z,6.60
2019-05-21T01:16:04.142Z,6.42
2019-05-21T01:18:33.541Z,7.15
2019-05-21T01:21:02.983Z,10.55
2019-05-21T01:23:46.048Z,8.50
2019-05-21T01:26:15.515Z,10.00
2019-05-21T01:28:45.030Z,7.75
2019-05-21T01:31:14.417Z,7.87
2019-05-21T01:34:04.362Z,9.63
2019-05-21T01:36:46.447Z,9.55
2019-05-21T01:39:15.912Z,8.10
2019-05-21T01:41:45.365Z,7.50
2019-05-21T01:44:15.909Z,8.35
2019-05-21T01:46:45.369Z,8.25
2019-05-21T01:49:14.826Z,8.35
2019-05-21T01:51:44.299Z,5.80
2019-05-21T01:54:33.125Z,5.58
2019-05-21T01:57:02.779Z,5.10
2019-05-21T01:59:32.306Z,4.42
2019-05-21T02:02:01.774Z,5.85
2019-05-21T02:04:31.312Z,8.30
2019-05-21T02:07:00.873Z,7.05
2019-05-21T02:09:31.984Z,6.72
2019-05-21T02:12:01.451Z,6.72
2019-05-21T02:14:31.009Z,6.67
2019-05-21T02:17:00.494Z,6.58
2019-05-21T02:19:29.959Z,7.75
2019-05-21T02:21:59.422Z,6.58
2019-05-21T02:24:28.886Z,8.08
2019-05-21T02:26:58.325Z,8.70
2019-05-21T02:29:27.799Z,7.37
2019-05-21T02:31:57.246Z,10.10
2019-05-21T02:34:26.678Z,8.60
2019-05-21T02:36:56.147Z,8.95
2019-05-21T02:39:25.596Z,9.23
2019-05-21T02:41:55.122Z,8.93
2019-05-21T02:44:24.592Z,9.88
2019-05-21T02:46:54.055Z,9.10
2019-05-21T02:49:23.632Z,9.20
2019-05-21T02:51:53.075Z,9.90
2019-05-21T02:54:39.385Z,9.68
2019-05-21T02:56:53.606Z,8.85
2019-05-21T02:59:23.062Z,7.15
2019-05-21T03:01:59.895Z,9.43
2019-05-21T03:04:29.372Z,8.08
2019-05-21T03:07:16.491Z,9.13
2019-05-21T03:09:49.702Z,7.67
2019-05-21T03:12:19.483Z,8.18
2019-05-21T03:14:48.953Z,7.87
2019-05-21T03:17:18.419Z,7.97
2019-05-21T03:19:48.978Z,8.30
2019-05-21T03:22:18.519Z,9.55
2019-05-21T03:24:47.968Z,9.60
2019-05-21T03:27:17.440Z,10.10
2019-05-21T03:29:46.966Z,10.05
2019-05-21T03:32:16.431Z,8.83
2019-05-21T03:34:45.888Z,8.33
2019-05-21T03:37:15.427Z,9.48
2019-05-21T03:39:44.893Z,9.00
2019-05-21T03:42:14.348Z,6.90
2019-05-21T03:44:58.810Z,7.25
2019-05-21T03:47:15.638Z,5.40
2019-05-21T03:49:52.525Z,7.37
2019-05-21T03:52:22.055Z,5.92
2019-05-21T03:54:51.503Z,7.00
2019-05-21T03:57:20.992Z,6.00
2019-05-21T03:59:50.517Z,6.40
2019-05-21T04:02:19.992Z,6.42
2019-05-21T04:04:49.461Z,7.03
2019-05-21T04:07:18.920Z,7.33
2019-05-21T04:09:48.366Z,7.17
2019-05-21T04:12:17.895Z,6.47
2019-05-21T04:14:54.902Z,5.00
2019-05-21T04:17:48.506Z,6.28
2019-05-21T04:20:18.050Z,7.17
2019-05-21T04:23:06.848Z,6.97
2019-05-21T04:25:36.320Z,6.80
2019-05-21T04:28:05.780Z,4.28
2019-05-21T04:30:35.270Z,6.33
2019-05-21T04:33:04.794Z,6.92
2019-05-21T04:35:34.259Z,8.63
2019-05-21T04:38:03.720Z,7.12
2019-05-21T04:40:33.171Z,6.62
2019-05-21T04:43:02.914Z,4.20
2019-05-21T04:45:32.423Z,6.62
2019-05-21T04:48:01.878Z,3.72
2019-05-21T04:50:31.355Z,4.15
2019-05-21T04:53:03.504Z,3.75
2019-05-21T04:55:44.842Z,3.12
2019-05-21T04:58:15.388Z,3.10
2019-05-21T05:00:44.989Z,4.42
2019-05-21T05:03:14.572Z,5.00
2019-05-21T05:05:44.130Z,4.55
2019-05-21T05:08:13.590Z,4.05
2019-05-21T05:10:43.135Z,4.42
2019-05-21T05:13:12.567Z,3.87
2019-05-21T05:15:42.019Z,5.90
2019-05-21T05:18:11.488Z,5.50
2019-05-21T05:20:40.949Z,6.53
2019-05-21T05:23:10.426Z,6.20
2019-05-21T05:25:39.934Z,5.45
2019-05-21T05:28:09.565Z,4.58
2019-05-21T05:30:39.090Z,5.28
2019-05-21T05:33:11.423Z,5.55
2019-05-21T05:35:40.870Z,3.30
2019-05-21T05:38:10.311Z,5.05
2019-05-21T05:40:39.846Z,4.45
2019-05-21T05:43:09.275Z,4.05
2019-05-21T05:45:58.099Z,4.85
2019-05-21T05:48:28.273Z,3.27
2019-05-21T05:51:00.455Z,5.22
2019-05-21T05:53:58.374Z,5.03
2019-05-21T05:56:31.026Z,5.87
2019-05-21T05:59:00.512Z,4.50
2019-05-21T06:01:31.662Z,4.10
2019-05-21T06:04:06.574Z,4.05
2019-05-21T06:06:38.268Z,5.10
2019-05-21T06:09:07.833Z,6.03
2019-05-21T06:11:37.283Z,5.17
2019-05-21T06:14:12.774Z,4.22
2019-05-21T06:16:42.293Z,3.87
2019-05-21T06:19:11.748Z,4.70
2019-05-21T06:21:41.215Z,4.40
2019-05-21T06:24:13.488Z,4.42
2019-05-21T06:26:42.961Z,4.85
2019-05-21T06:29:12.542Z,5.50
2019-05-21T06:31:42.022Z,4.47
2019-05-21T06:34:30.827Z,5.92
2019-05-21T06:37:00.382Z,4.58
2019-05-21T06:39:36.890Z,4.72
2019-05-21T06:42:06.366Z,3.15
2019-05-21T06:44:38.196Z,4.08
2019-05-21T06:47:07.743Z,3.20
2019-05-21T06:49:44.610Z,4.35
2019-05-21T06:52:17.289Z,3.67
2019-05-21T06:57:18.704Z,4.20
2019-05-21T06:59:48.103Z,3.12
2019-05-21T07:02:17.611Z,4.37
2019-05-21T07:04:47.171Z,7.90
2019-05-21T07:07:16.653Z,5.40
2019-05-21T07:09:46.134Z,6.55
2019-05-21T07:12:15.610Z,6.05
2019-05-21T07:14:45.075Z,4.60
2019-05-21T07:17:14.592Z,5.95
2019-05-21T07:19:44.123Z,7.37
2019-05-21T07:22:13.676Z,6.62
2019-05-21T07:24:43.051Z,6.55
2019-05-21T07:27:12.678Z,6.90
2019-05-21T07:29:42.219Z,7.42
2019-05-21T07:32:11.766Z,6.47
2019-05-21T07:34:41.246Z,4.28
2019-05-21T07:37:10.717Z,5.70
2019-05-21T07:39:40.180Z,4.47
2019-05-21T07:42:09.623Z,3.50
2019-05-21T07:44:39.071Z,4.70
2019-05-21T07:47:08.535Z,3.70
2019-05-21T07:49:50.859Z,4.65
2019-05-21T07:52:20.298Z,3.83
2019-05-21T07:54:49.849Z,3.62
2019-05-21T07:57:19.311Z,4.47
2019-05-21T07:59:48.769Z,6.17
2019-05-21T08:02:18.258Z,1.98
2019-05-21T08:04:47.703Z,4.10
2019-05-21T08:07:17.146Z,3.83
2019-05-21T08:09:47.689Z,4.83
2019-05-21T08:12:35.572Z,2.42
2019-05-21T08:14:48.186Z,3.42
2019-05-21T08:17:17.680Z,2.45
2019-05-21T08:19:47.195Z,3.27
2019-05-21T08:22:18.182Z,4.83
2019-05-21T08:24:48.819Z,3.05
2019-05-21T08:27:18.280Z,4.92
2019-05-21T08:29:47.715Z,4.62
2019-05-21T08:32:17.185Z,2.22
2019-05-21T08:34:46.660Z,3.98
2019-05-21T08:37:16.102Z,3.55
2019-05-21T08:39:45.622Z,4.35
2019-05-21T08:42:15.462Z,3.92
2019-05-21T08:44:45.080Z,3.65
2019-05-21T08:47:14.585Z,4.40
2019-05-21T08:49:44.349Z,3.87
2019-05-21T08:52:13.987Z,2.75
2019-05-21T08:54:56.073Z,2.75
2019-05-21T08:57:23.637Z,4.47
2019-05-21T08:59:53.184Z,3.85
2019-05-21T09:02:24.403Z,3.95
2019-05-21T09:04:53.939Z,3.95
2019-05-21T09:07:23.418Z,5.25
2019-05-21T09:09:52.895Z,3.95
2019-05-21T09:12:22.349Z,3.87
2019-05-21T09:14:51.793Z,2.30
2019-05-21T09:17:21.278Z,2.83
2019-05-21T09:19:50.798Z,3.10
2019-05-21T09:22:39.620Z,3.20
2019-05-21T09:25:09.687Z,3.47
2019-05-21T09:27:39.274Z,4.05
2019-05-21T09:30:21.500Z,2.98
2019-05-21T09:32:50.987Z,3.10
2019-05-21T09:35:20.507Z,4.90
2019-05-21T09:37:49.969Z,4.08
2019-05-21T09:40:22.448Z,2.83
2019-05-21T09:42:51.895Z,3.92
2019-05-21T09:45:21.496Z,2.72
2019-05-21T09:47:51.170Z,3.42
2019-05-21T09:50:20.871Z,3.90
2019-05-21T09:52:50.450Z,3.95
2019-05-21T09:55:19.935Z,3.10
2019-05-21T09:57:53.916Z,3.70
2019-05-21T10:00:34.840Z,3.10
2019-05-21T10:03:27.031Z,4.10
2019-05-21T10:05:56.195Z,2.02
2019-05-21T10:08:26.716Z,3.95
2019-05-21T10:10:56.206Z,3.85
2019-05-21T10:13:25.795Z,3.42
2019-05-21T10:15:55.385Z,2.72
2019-05-21T10:18:24.944Z,3.55
2019-05-21T10:20:54.400Z,4.78
2019-05-21T10:23:24.005Z,2.67
2019-05-21T10:25:53.457Z,3.35
2019-05-21T10:28:22.930Z,5.35
2019-05-21T10:30:52.417Z,4.33
2019-05-21T10:33:21.862Z,2.95
2019-05-21T10:35:51.393Z,3.25
2019-05-21T10:38:20.926Z,3.12
2019-05-21T10:40:50.386Z,3.10
2019-05-21T10:43:19.900Z,3.92
2019-05-21T10:45:49.433Z,4.40
2019-05-21T10:48:18.974Z,3.67
2019-05-21T10:50:48.425Z,2.70
2019-05-21T10:53:19.062Z,2.92
2019-05-21T10:55:48.616Z,3.02
2019-05-21T10:58:18.215Z,3.37
2019-05-21T11:00:48.775Z,3.05
2019-05-21T11:03:22.689Z,2.52
2019-05-21T11:08:25.205Z,2.92
2019-05-21T11:10:55.121Z,2.77
2019-05-21T11:13:24.612Z,3.00
2019-05-21T11:15:54.107Z,2.40
2019-05-21T11:18:24.599Z,3.37
2019-05-21T11:20:54.194Z,2.83
2019-05-21T11:23:23.697Z,3.10
2019-05-21T11:25:53.068Z,4.35
2019-05-21T11:28:22.826Z,4.25
2019-05-21T11:30:52.357Z,3.33
2019-05-21T11:33:22.012Z,2.60
2019-05-21T11:35:51.558Z,2.30
2019-05-21T11:38:21.064Z,3.35
2019-05-21T11:40:51.390Z,3.15
2019-05-21T11:43:20.969Z,3.02
2019-05-21T11:45:50.427Z,3.12
2019-05-21T11:48:20.656Z,2.92
2019-05-21T11:50:50.101Z,3.40
2019-05-21T11:53:19.530Z,2.05
2019-05-21T11:55:48.983Z,2.80
2019-05-21T11:58:18.510Z,3.40
2019-05-21T12:00:48.027Z,3.17
2019-05-21T12:03:18.528Z,2.60
2019-05-21T12:05:48.009Z,3.17
2019-05-21T12:08:23.157Z,4.35
2019-05-21T12:10:52.612Z,3.20
2019-05-21T12:13:22.056Z,3.47
2019-05-21T12:15:51.518Z,3.72
2019-05-21T12:18:21.000Z,3.83
2019-05-21T12:20:50.481Z,3.75
2019-05-21T12:23:19.963Z,4.15
2019-05-21T12:25:49.461Z,3.75
2019-05-21T12:28:24.737Z,4.33
2019-05-21T12:30:54.198Z,4.70
2019-05-21T12:33:23.633Z,3.58
2019-05-21T12:35:53.164Z,3.98
2019-05-21T12:38:41.952Z,4.53
2019-05-21T12:41:13.886Z,3.70
2019-05-21T12:43:42.579Z,3.55
2019-05-21T12:46:12.107Z,3.65
2019-05-21T12:48:41.652Z,4.00
2019-05-21T12:51:11.111Z,3.27
2019-05-21T12:53:46.040Z,4.03
2019-05-21T12:56:15.496Z,3.70
2019-05-21T12:58:46.182Z,3.40
2019-05-21T13:01:15.660Z,3.95
2019-05-21T13:03:45.096Z,3.98
2019-05-21T13:06:15.031Z,4.67
2019-05-21T13:08:44.482Z,2.98
2019-05-21T13:11:14.009Z,3.37
2019-05-21T13:13:43.492Z,2.58
2019-05-21T13:16:12.994Z,3.50
2019-05-21T13:18:42.534Z,3.05
2019-05-21T13:21:11.999Z,2.58
2019-05-21T13:23:42.526Z,2.45
2019-05-21T13:26:12.111Z,3.58
2019-05-21T13:28:41.576Z,2.27
2019-05-21T13:31:11.049Z,2.98
2019-05-21T13:33:40.629Z,2.80
2019-05-21T13:36:10.176Z,2.22
2019-05-21T13:38:39.635Z,2.95
2019-05-21T13:41:09.856Z,4.30
2019-05-21T13:43:39.511Z,3.80
2019-05-21T13:46:08.906Z,2.80
2019-05-21T13:48:38.392Z,3.55
2019-05-21T13:51:07.860Z,4.00
2019-05-21T13:53:37.406Z,3.55
2019-05-21T13:56:06.901Z,3.65
2019-05-21T13:58:37.532Z,3.22
2019-05-21T14:01:08.327Z,2.70
2019-05-21T14:03:38.218Z,2.98
2019-05-21T14:06:08.033Z,3.00
2019-05-21T14:08:39.140Z,3.15
2019-05-21T14:11:08.663Z,2.65
2019-05-21T14:13:38.205Z,3.17
2019-05-21T14:16:07.902Z,2.72
2019-05-21T14:18:37.323Z,2.95
2019-05-21T14:21:06.771Z,2.35
2019-05-21T14:23:36.314Z,3.17
2019-05-21T14:26:05.879Z,3.40
2019-05-21T14:28:35.440Z,3.12
2019-05-21T14:31:05.039Z,3.37
2019-05-21T14:33:34.483Z,3.00
2019-05-21T14:36:04.170Z,3.15
2019-05-21T14:38:52.957Z,3.62
2019-05-21T14:41:22.485Z,3.42
2019-05-21T14:43:51.883Z,3.60
2019-05-21T14:46:21.314Z,3.60
2019-05-21T14:48:50.785Z,2.87
2019-05-21T14:51:20.235Z,3.77
2019-05-21T14:53:51.195Z,3.87
2019-05-21T14:56:20.656Z,3.70
2019-05-21T14:58:53.386Z,3.75
2019-05-21T15:01:23.964Z,3.55
2019-05-21T15:03:53.532Z,3.95
2019-05-21T15:06:23.296Z,4.17
2019-05-21T15:08:52.826Z,3.77
2019-05-21T15:11:22.274Z,4.75
2019-05-21T15:13:52.697Z,4.47
2019-05-21T15:16:22.321Z,4.95
2019-05-21T15:18:51.985Z,4.67
2019-05-21T15:21:38.481Z,4.25
2019-05-21T15:24:09.420Z,3.62
2019-05-21T15:26:39.162Z,3.42
2019-05-21T15:29:08.601Z,2.92
2019-05-21T15:31:38.039Z,3.30
2019-05-21T15:34:07.506Z,2.87
2019-05-21T15:36:36.957Z,3.70
2019-05-21T15:39:08.274Z,3.02
2019-05-21T15:41:41.798Z,3.50
2019-05-21T15:44:11.330Z,3.00
2019-05-21T15:46:48.472Z,3.65
2019-05-21T15:49:11.876Z,3.17
2019-05-21T15:51:41.325Z,2.77
2019-05-21T15:54:10.855Z,3.08
2019-05-21T15:56:40.297Z,3.45
2019-05-21T15:59:09.745Z,3.37
2019-05-21T16:01:40.921Z,3.85
2019-05-21T16:04:10.746Z,4.08
2019-05-21T16:06:40.246Z,3.92
2019-05-21T16:09:09.724Z,4.00
2019-05-21T16:11:39.186Z,3.00
2019-05-21T16:14:09.409Z,3.08
2019-05-21T16:16:40.289Z,3.65
2019-05-21T16:19:09.759Z,3.30
2019-05-21T16:21:39.366Z,2.90
2019-05-21T16:24:09.084Z,2.45
2019-05-21T16:26:40.656Z,3.22
2019-05-21T16:29:09.767Z,3.85
2019-05-21T16:31:39.196Z,3.50
2019-05-21T16:34:10.182Z,3.22
2019-05-21T16:36:39.631Z,3.52
2019-05-21T16:39:09.392Z,4.17
2019-05-21T16:41:44.911Z,3.98
2019-05-21T16:44:10.250Z,4.10
2019-05-21T16:46:42.479Z,4.58
2019-05-21T16:49:10.891Z,3.98
2019-05-21T16:51:43.330Z,4.28
2019-05-21T16:54:11.511Z,4.12
2019-05-21T16:56:40.943Z,4.37
2019-05-21T16:59:10.392Z,4.47
2019-05-21T17:01:39.883Z,5.72
2019-05-21T17:04:09.335Z,5.83
2019-05-21T17:06:38.815Z,7.03
2019-05-21T17:09:11.365Z,6.05
2019-05-21T17:11:40.889Z,6.33
2019-05-21T17:14:10.544Z,6.80
2019-05-21T17:16:39.931Z,7.30
2019-05-21T17:19:09.542Z,6.75
2019-05-21T17:21:39.048Z,6.22
2019-05-21T17:24:08.564Z,5.00
2019-05-21T17:26:38.179Z,7.30
2019-05-21T17:29:07.638Z,6.83
2019-05-21T17:31:37.151Z,6.30
2019-05-21T17:34:06.603Z,6.25
2019-05-21T17:36:36.058Z,7.70
2019-05-21T17:39:06.780Z,7.72
2019-05-21T17:41:36.434Z,6.78
2019-05-21T17:44:09.590Z,8.78
2019-05-21T17:46:39.118Z,6.53
2019-05-21T17:49:08.578Z,5.95
2019-05-21T17:51:42.407Z,5.67
2019-05-21T17:54:11.973Z,4.50
2019-05-21T17:56:41.695Z,5.50
2019-05-21T17:59:12.266Z,5.25
2019-05-21T18:01:42.210Z,4.97
2019-05-21T18:04:12.139Z,5.53
2019-05-21T18:06:42.172Z,4.42
2019-05-21T18:09:13.395Z,4.85
2019-05-21T18:11:50.339Z,5.87
2019-05-21T18:14:20.283Z,5.00
2019-05-21T18:16:50.048Z,5.03
2019-05-21T18:19:20.009Z,5.33
2019-05-21T18:21:49.589Z,5.37
2019-05-21T18:24:19.052Z,4.42
2019-05-21T18:26:48.866Z,4.90
2019-05-21T18:29:18.322Z,5.05
2019-05-21T18:31:47.874Z,4.33
2019-05-21T18:34:18.222Z,4.62
2019-05-21T18:36:48.027Z,4.12
2019-05-21T18:39:20.666Z,4.00
2019-05-21T18:41:50.247Z,4.35
2019-05-21T18:44:19.794Z,4.25
2019-05-21T18:46:49.325Z,4.87
2019-05-21T18:49:18.850Z,5.20
2019-05-21T18:51:48.394Z,5.58
2019-05-21T18:54:17.934Z,3.95
2019-05-21T18:56:47.515Z,4.50
2019-05-21T18:59:18.195Z,4.72
2019-05-21T19:01:47.722Z,3.40
2019-05-21T19:04:17.183Z,3.87
2019-05-21T19:06:46.690Z,4.08
2019-05-21T19:09:16.393Z,3.85
2019-05-21T19:11:45.995Z,4.60
2019-05-21T19:14:15.558Z,4.15
2019-05-21T19:16:45.048Z,4.08
2019-05-21T19:19:16.842Z,4.17
2019-05-21T19:21:48.056Z,4.10
2019-05-21T19:24:19.188Z,5.25
2019-05-21T19:26:48.744Z,5.33
2019-05-21T19:29:18.314Z,4.50
2019-05-21T19:31:49.437Z,3.90
2019-05-21T19:34:19.023Z,3.72
2019-05-21T19:36:48.466Z,5.03
2019-05-21T19:39:18.272Z,4.50
2019-05-21T19:41:47.715Z,4.78
2019-05-21T19:44:17.163Z,5.08
2019-05-21T19:46:46.542Z,5.42
2019-05-21T19:49:16.009Z,5.33
2019-05-21T19:51:45.527Z,5.03
2019-05-21T19:54:15.149Z,5.33
2019-05-21T19:56:44.672Z,4.95
2019-05-21T19:59:14.310Z,5.10
2019-05-21T20:04:25.841Z,5.33
2019-05-21T20:06:55.595Z,4.87
2019-05-21T20:09:27.038Z,5.17
2019-05-21T20:11:56.701Z,6.35
2019-05-21T20:14:26.303Z,5.78
2019-05-21T20:16:56.026Z,5.83
2019-05-21T20:19:25.822Z,7.05
2019-05-21T20:21:55.485Z,6.05
2019-05-21T20:24:25.441Z,5.87
2019-05-21T20:26:55.161Z,5.55
2019-05-21T20:29:24.668Z,5.25
2019-05-21T20:31:54.463Z,5.62
2019-05-21T20:34:24.227Z,5.17
2019-05-21T20:36:54.355Z,4.20
2019-05-21T20:39:27.092Z,3.42
2019-05-21T20:41:57.814Z,3.60
2019-05-21T20:44:28.078Z,4.08
2019-05-21T20:46:58.951Z,4.33
2019-05-21T20:49:30.265Z,5.33
2019-05-21T20:52:19.198Z,4.37
2019-05-21T20:54:50.444Z,5.45
2019-05-21T20:57:20.332Z,5.30
2019-05-21T20:59:51.431Z,6.30
2019-05-21T21:02:21.260Z,5.17
2019-05-21T21:04:51.344Z,5.50
2019-05-21T21:07:20.960Z,5.00
2019-05-21T21:09:50.574Z,4.75
2019-05-21T21:12:20.610Z,5.30
2019-05-21T21:14:50.643Z,6.00
2019-05-21T21:17:20.265Z,5.53
2019-05-21T21:19:49.703Z,4.97
2019-05-21T21:22:19.243Z,6.05
2019-05-21T21:24:49.928Z,5.67
2019-05-21T21:27:20.153Z,6.47
2019-05-21T21:29:49.669Z,7.47
2019-05-21T21:32:19.053Z,6.42
2019-05-21T21:34:49.282Z,6.12
2019-05-21T21:37:18.738Z,5.85
2019-05-21T21:39:49.338Z,5.85
2019-05-21T21:42:19.089Z,4.42
2019-05-21T21:44:52.167Z,5.35
2019-05-21T21:47:22.415Z,5.50
2019-05-21T21:49:53.278Z,5.55
2019-05-21T21:52:23.161Z,5.60
2019-05-21T21:54:53.690Z,5.72
2019-05-21T21:57:23.138Z,5.22
2019-05-21T21:59:53.562Z,3.67
2019-05-21T22:02:32.263Z,4.62
2019-05-21T22:05:02.198Z,4.90
2019-05-21T22:07:32.898Z,4.78
2019-05-21T22:10:02.512Z,4.40
2019-05-21T22:12:32.810Z,4.80
2019-05-21T22:15:02.588Z,5.33
2019-05-21T22:17:33.303Z,4.17
2019-05-21T22:20:03.335Z,4.87
2019-05-21T22:22:33.171Z,4.30
2019-05-21T22:25:03.369Z,5.03
2019-05-21T22:27:34.305Z,4.55
2019-05-21T22:30:05.517Z,4.33
2019-05-21T22:32:35.098Z,4.40
2019-05-21T22:35:05.690Z,5.80
2019-05-21T22:37:37.442Z,5.95
2019-05-21T22:40:07.341Z,5.75
2019-05-21T22:42:37.226Z,4.15
2019-05-21T22:45:09.866Z,5.60
2019-05-21T22:47:39.385Z,5.40
2019-05-21T22:50:09.022Z,5.22
2019-05-21T22:52:38.462Z,5.58
2019-05-21T22:55:08.337Z,6.33
2019-05-21T22:57:37.795Z,7.12
2019-05-21T23:00:08.598Z,5.67
2019-05-21T23:02:39.527Z,7.55
2019-05-21T23:05:09.114Z,7.10
2019-05-21T23:07:40.189Z,8.38
2019-05-21T23:10:11.060Z,7.70
2019-05-21T23:12:53.123Z,8.58
2019-05-21T23:15:25.277Z,8.45
2019-05-21T23:18:10.622Z,6.92
2019-05-21T23:20:41.929Z,9.10
2019-05-21T23:23:14.197Z,7.33
2019-05-21T23:25:44.437Z,7.15
2019-05-21T23:28:14.243Z,7.70
2019-05-21T23:30:44.113Z,8.38
2019-05-21T23:33:14.416Z,6.50
2019-05-21T23:35:44.004Z,8.10
2019-05-21T23:38:13.508Z,6.65
2019-05-21T23:40:43.121Z,5.62
2019-05-21T23:43:12.993Z,4.67
2019-05-21T23:45:42.721Z,5.15
2019-05-21T23:48:15.039Z,4.45
2019-05-21T23:50:44.558Z,3.83
2019-05-21T23:53:14.191Z,3.80
2019-05-21T23:55:43.975Z,5.78
2019-05-21T23:58:32.840Z,4.78
